createdAt,value
2023-02-03T00:01:16.696Z,5.93
2023-02-03T00:03:21.066Z,6.02
2023-02-03T00:05:23.867Z,5.96
2023-02-03T00:07:26.668Z,5.89
2023-02-03T00:09:29.484Z,5.86
2023-02-03T00:11:33.656Z,5.85
2023-02-03T00:13:36.784Z,5.89
2023-02-03T00:15:39.371Z,5.93
2023-02-03T00:17:42.169Z,5.95
2023-02-03T00:19:44.816Z,5.95
2023-02-03T00:21:47.417Z,5.84
2023-02-03T00:23:49.989Z,5.77
2023-02-03T00:25:53.685Z,5.72
2023-02-03T00:27:57.932Z,5.83
2023-02-03T00:30:00.600Z,5.87
2023-02-03T00:32:03.372Z,5.76
2023-02-03T00:34:06.065Z,5.88
2023-02-03T00:36:09.684Z,5.89
2023-02-03T00:38:12.284Z,5.85
2023-02-03T00:40:14.875Z,5.83
2023-02-03T00:42:17.469Z,5.70
2023-02-03T00:44:21.456Z,5.61
2023-02-03T00:46:24.032Z,5.75
2023-02-03T00:48:26.592Z,5.69
2023-02-03T00:50:29.270Z,5.54
2023-02-03T00:52:34.104Z,5.73
2023-02-03T00:54:36.689Z,5.69
2023-02-03T00:56:39.341Z,5.59
2023-02-03T00:58:41.984Z,5.47
2023-02-03T01:00:45.904Z,5.44
2023-02-03T01:02:49.271Z,5.51
2023-02-03T01:04:51.921Z,5.59
2023-02-03T01:06:57.445Z,5.53
2023-02-03T01:09:00.281Z,5.59
2023-02-03T01:11:07.675Z,5.62
2023-02-03T01:13:10.237Z,5.57
2023-02-03T01:15:12.846Z,5.59
2023-02-03T01:17:16.734Z,5.60
2023-02-03T01:19:19.409Z,5.56
2023-02-03T01:21:24.166Z,5.62
2023-02-03T01:23:26.699Z,5.64
2023-02-03T01:25:29.540Z,5.55
2023-02-03T01:27:32.776Z,5.53
2023-02-03T01:29:35.381Z,5.58
2023-02-03T01:31:40.188Z,5.57
2023-02-03T01:33:47.025Z,5.60
2023-02-03T01:35:49.567Z,5.64
2023-02-03T01:37:52.242Z,5.68
2023-02-03T01:39:54.803Z,5.67
2023-02-03T01:41:57.747Z,5.68
2023-02-03T01:44:02.889Z,5.71
2023-02-03T01:46:17.586Z,5.76
2023-02-03T01:48:20.218Z,5.82
2023-02-03T01:50:28.374Z,5.70
2023-02-03T01:52:32.652Z,5.64
2023-02-03T01:54:41.509Z,5.65
2023-02-03T01:56:49.394Z,5.62
2023-02-03T01:58:52.377Z,5.56
2023-02-03T02:00:57.484Z,5.44
2023-02-03T02:03:03.132Z,5.47
2023-02-03T02:05:09.243Z,5.56
2023-02-03T02:07:15.748Z,5.47
2023-02-03T02:09:18.733Z,5.54
2023-02-03T02:11:22.370Z,5.56
2023-02-03T02:13:25.733Z,5.58
2023-02-03T02:15:36.693Z,5.48
2023-02-03T02:18:01.193Z,5.43
2023-02-03T02:20:47.998Z,5.59
2023-02-03T02:23:12.412Z,5.66
2023-02-03T02:25:44.105Z,5.65
2023-02-03T02:28:17.854Z,5.65
2023-02-03T02:30:40.538Z,5.47
2023-02-03T02:32:54.713Z,5.47
2023-02-03T02:35:05.973Z,5.63
2023-02-03T02:37:19.374Z,5.70
2023-02-03T02:39:26.456Z,5.69
2023-02-03T02:41:35.406Z,5.62
2023-02-03T02:43:42.756Z,5.88
2023-02-03T02:45:49.144Z,5.84
2023-02-03T02:47:57.105Z,5.69
2023-02-03T02:50:04.279Z,5.84
2023-02-03T02:52:09.435Z,5.80
2023-02-03T02:54:17.566Z,5.84
2023-02-03T02:56:20.783Z,5.86
2023-02-03T02:58:25.559Z,5.96
2023-02-03T03:00:30.937Z,5.88
2023-02-03T03:02:35.028Z,5.86
2023-02-03T03:04:39.710Z,5.98
2023-02-03T03:06:47.590Z,5.81
2023-02-03T03:08:55.871Z,5.73
2023-02-03T03:11:02.161Z,5.70
2023-02-03T03:13:08.629Z,5.72
2023-02-03T03:15:15.376Z,5.67
2023-02-03T03:17:22.662Z,5.80
2023-02-03T03:19:29.415Z,5.79
2023-02-03T03:21:38.088Z,5.74
2023-02-03T03:23:45.582Z,5.80
2023-02-03T03:25:52.781Z,5.66
2023-02-03T03:28:00.051Z,5.72
2023-02-03T03:30:06.419Z,5.85
2023-02-03T03:32:09.751Z,5.87
2023-02-03T03:34:13.971Z,5.83
2023-02-03T03:36:24.135Z,5.67
2023-02-03T03:38:33.675Z,5.64
2023-02-03T03:40:41.140Z,5.63
2023-02-03T03:42:50.884Z,5.70
2023-02-03T03:45:00.336Z,5.96
2023-02-03T03:47:10.706Z,5.78
2023-02-03T03:49:14.726Z,5.90
2023-02-03T03:51:21.362Z,5.86
2023-02-03T03:53:25.338Z,5.92
2023-02-03T03:55:32.403Z,5.93
2023-02-03T03:57:38.693Z,5.97
2023-02-03T03:59:44.734Z,5.89
2023-02-03T04:01:49.123Z,5.80
2023-02-03T04:03:56.522Z,5.97
2023-02-03T04:05:59.121Z,5.82
2023-02-03T04:08:03.192Z,5.70
2023-02-03T04:10:11.525Z,5.76
2023-02-03T04:12:23.460Z,5.75
2023-02-03T04:14:26.087Z,5.89
2023-02-03T04:16:28.836Z,5.74
2023-02-03T04:18:31.456Z,5.76
2023-02-03T04:20:34.247Z,5.72
2023-02-03T04:22:36.772Z,5.79
2023-02-03T04:24:39.356Z,5.75
2023-02-03T04:26:41.982Z,5.76
2023-02-03T04:28:46.101Z,5.99
2023-02-03T04:30:48.724Z,5.86
2023-02-03T04:32:51.529Z,5.83
2023-02-03T04:34:54.162Z,5.90
2023-02-03T04:36:56.775Z,5.84
2023-02-03T04:38:59.381Z,5.88
2023-02-03T04:41:01.965Z,5.82
2023-02-03T04:43:10.495Z,5.86
2023-02-03T04:45:14.591Z,6.01
2023-02-03T04:47:20.174Z,6.09
2023-02-03T04:49:22.761Z,6.04
2023-02-03T04:51:25.392Z,6.11
2023-02-03T04:53:27.979Z,5.97
2023-02-03T04:55:30.775Z,6.12
2023-02-03T04:57:33.397Z,5.96
2023-02-03T04:59:35.958Z,5.95
2023-02-03T05:01:39.857Z,5.85
2023-02-03T05:03:42.443Z,6.07
2023-02-03T05:05:45.217Z,6.03
2023-02-03T05:07:47.780Z,5.82
2023-02-03T05:09:50.343Z,5.93
2023-02-03T05:11:52.954Z,6.05
2023-02-03T05:13:55.769Z,5.90
2023-02-03T05:15:58.417Z,5.82
2023-02-03T05:18:02.363Z,5.83
2023-02-03T05:20:05.604Z,6.00
2023-02-03T05:22:08.141Z,6.01
2023-02-03T05:24:10.954Z,6.04
2023-02-03T05:26:13.875Z,6.01
2023-02-03T05:28:16.482Z,5.95
2023-02-03T05:30:19.699Z,5.98
2023-02-03T05:32:22.259Z,5.93
2023-02-03T05:34:26.269Z,6.01
2023-02-03T05:36:28.847Z,5.98
2023-02-03T05:38:31.452Z,5.80
2023-02-03T05:40:51.815Z,5.75
2023-02-03T05:42:54.385Z,5.75
2023-02-03T05:44:56.924Z,5.82
2023-02-03T05:47:00.759Z,6.01
2023-02-03T05:49:03.338Z,6.07
2023-02-03T05:51:07.337Z,5.87
2023-02-03T05:53:10.153Z,5.80
2023-02-03T05:55:12.719Z,5.84
2023-02-03T05:57:15.318Z,5.71
2023-02-03T05:59:18.013Z,5.66
2023-02-03T06:01:20.725Z,5.60
2023-02-03T06:03:23.333Z,5.57
2023-02-03T06:05:27.204Z,5.61
2023-02-03T06:07:31.159Z,5.56
2023-02-03T06:09:33.716Z,5.63
2023-02-03T06:11:37.274Z,5.77
2023-02-03T06:13:40.213Z,5.66
2023-02-03T06:15:43.763Z,5.82
2023-02-03T06:17:47.494Z,5.74
2023-02-03T06:19:50.128Z,5.84
2023-02-03T06:21:52.666Z,5.79
2023-02-03T06:23:56.859Z,5.83
2023-02-03T06:26:00.319Z,5.78
2023-02-03T06:28:02.952Z,5.85
2023-02-03T06:30:06.317Z,5.96
2023-02-03T06:32:09.582Z,5.99
2023-02-03T06:34:12.173Z,6.01
2023-02-03T06:36:14.722Z,5.91
2023-02-03T06:38:17.325Z,5.77
2023-02-03T06:40:21.461Z,5.96
2023-02-03T06:42:23.987Z,5.90
2023-02-03T06:44:26.574Z,5.80
2023-02-03T06:46:30.461Z,5.73
2023-02-03T06:48:33.282Z,5.74
2023-02-03T06:50:35.996Z,5.77
2023-02-03T06:52:38.689Z,5.83
2023-02-03T06:54:41.300Z,5.68
2023-02-03T06:56:45.359Z,5.95
2023-02-03T06:58:47.978Z,5.94
2023-02-03T07:00:51.369Z,5.89
2023-02-03T07:02:55.031Z,6.00
2023-02-03T07:04:57.672Z,5.87
2023-02-03T07:07:00.297Z,5.88
2023-02-03T07:09:05.267Z,5.72
2023-02-03T07:11:08.233Z,5.76
2023-02-03T07:13:12.264Z,5.90
2023-02-03T07:15:14.871Z,5.89
2023-02-03T07:17:17.472Z,5.95
2023-02-03T07:19:20.034Z,5.89
2023-02-03T07:21:22.719Z,5.88
2023-02-03T07:23:25.323Z,5.80
2023-02-03T07:25:28.050Z,5.69
2023-02-03T07:27:30.690Z,5.71
2023-02-03T07:29:34.605Z,5.82
2023-02-03T07:31:38.360Z,5.74
2023-02-03T07:33:41.014Z,5.66
2023-02-03T07:35:43.704Z,5.66
2023-02-03T07:37:46.657Z,6.05
2023-02-03T07:39:49.277Z,6.18
2023-02-03T07:41:51.964Z,5.97
2023-02-03T07:43:54.604Z,6.02
2023-02-03T07:46:01.669Z,5.80
2023-02-03T07:48:04.783Z,5.86
2023-02-03T07:50:07.878Z,5.85
2023-02-03T07:52:10.439Z,5.85
2023-02-03T07:54:13.003Z,6.00
2023-02-03T07:56:15.615Z,6.16
2023-02-03T07:58:18.247Z,6.08
2023-02-03T08:00:21.771Z,6.08
2023-02-03T08:02:25.708Z,5.94
2023-02-03T08:04:28.340Z,6.06
2023-02-03T08:06:31.512Z,6.13
2023-02-03T08:08:34.092Z,6.11
2023-02-03T08:10:36.695Z,6.00
2023-02-03T08:12:40.070Z,6.05
2023-02-03T08:14:42.702Z,6.07
2023-02-03T08:16:46.082Z,6.09
2023-02-03T08:18:49.974Z,6.23
2023-02-03T08:20:52.588Z,6.21
2023-02-03T08:22:55.143Z,6.18
2023-02-03T08:24:57.719Z,6.17
2023-02-03T08:27:01.759Z,6.07
2023-02-03T08:29:05.055Z,6.19
2023-02-03T08:31:11.098Z,6.05
2023-02-03T08:33:13.726Z,5.99
2023-02-03T08:35:17.816Z,6.06
2023-02-03T08:37:22.569Z,6.09
2023-02-03T08:39:25.306Z,6.08
2023-02-03T08:41:27.837Z,6.00
2023-02-03T08:43:30.391Z,6.04
2023-02-03T08:45:32.983Z,6.01
2023-02-03T08:47:36.813Z,6.07
2023-02-03T08:49:40.808Z,5.96
2023-02-03T08:51:45.675Z,5.96
2023-02-03T08:53:48.250Z,5.92
2023-02-03T08:55:50.981Z,6.11
2023-02-03T08:57:53.543Z,6.23
2023-02-03T08:59:56.097Z,6.07
2023-02-03T09:01:59.917Z,6.02
2023-02-03T09:04:03.955Z,6.15
2023-02-03T09:06:08.581Z,6.22
2023-02-03T09:08:12.493Z,6.21
2023-02-03T09:10:15.054Z,6.25
2023-02-03T09:12:18.059Z,6.18
2023-02-03T09:14:20.625Z,6.28
2023-02-03T09:16:23.357Z,6.20
2023-02-03T09:18:26.013Z,6.43
2023-02-03T09:20:29.307Z,6.43
2023-02-03T09:22:32.341Z,6.29
2023-02-03T09:24:36.738Z,6.35
2023-02-03T09:26:39.248Z,6.23
2023-02-03T09:28:42.212Z,6.18
2023-02-03T09:30:44.757Z,6.37
2023-02-03T09:32:53.939Z,6.21
2023-02-03T09:34:56.540Z,6.25
2023-02-03T09:36:59.199Z,6.28
2023-02-03T09:39:01.835Z,6.22
2023-02-03T09:41:18.460Z,6.36
2023-02-03T09:43:33.018Z,6.60
2023-02-03T09:45:35.812Z,6.58
2023-02-03T09:47:42.471Z,6.67
2023-02-03T09:49:50.377Z,6.55
2023-02-03T09:51:58.936Z,6.68
2023-02-03T09:54:06.498Z,6.51
2023-02-03T09:56:23.180Z,6.40
2023-02-03T09:58:29.203Z,6.54
2023-02-03T10:00:36.032Z,6.58
2023-02-03T10:02:52.741Z,6.60
2023-02-03T10:05:00.811Z,6.77
2023-02-03T10:07:13.017Z,6.77
2023-02-03T10:09:24.337Z,6.71
2023-02-03T10:11:53.370Z,6.60
2023-02-03T10:14:10.096Z,6.56
2023-02-03T10:16:26.374Z,6.88
2023-02-03T10:18:33.151Z,6.84
2023-02-03T10:20:40.750Z,6.86
2023-02-03T10:22:46.860Z,6.87
2023-02-03T10:24:55.381Z,6.83
2023-02-03T10:26:59.560Z,6.94
2023-02-03T10:29:09.152Z,6.87
2023-02-03T10:31:19.620Z,6.86
2023-02-03T10:33:22.275Z,6.79
2023-02-03T10:35:33.221Z,6.88
2023-02-03T10:37:42.515Z,6.98
2023-02-03T10:39:48.206Z,6.88
2023-02-03T10:41:50.948Z,6.94
2023-02-03T10:43:57.532Z,7.06
2023-02-03T10:46:00.522Z,7.08
2023-02-03T10:48:05.230Z,6.95
2023-02-03T10:50:16.322Z,6.90
2023-02-03T10:52:33.914Z,6.84
2023-02-03T10:54:38.270Z,6.91
2023-02-03T10:56:41.633Z,6.88
2023-02-03T10:58:49.581Z,6.79
2023-02-03T11:00:56.783Z,6.81
2023-02-03T11:03:06.839Z,6.88
2023-02-03T11:05:12.126Z,6.79
2023-02-03T11:07:25.879Z,6.82
2023-02-03T11:09:33.922Z,6.84
2023-02-03T11:11:41.506Z,6.73
2023-02-03T11:13:44.367Z,6.80
2023-02-03T11:15:56.319Z,6.82
2023-02-03T11:17:58.923Z,6.90
2023-02-03T11:20:13.713Z,6.80
2023-02-03T11:22:29.771Z,6.74
2023-02-03T11:24:37.933Z,6.77
2023-02-03T11:26:45.105Z,6.85
2023-02-03T11:28:51.492Z,6.83
2023-02-03T11:30:59.374Z,6.86
2023-02-03T11:33:03.044Z,6.92
2023-02-03T11:35:16.996Z,6.88
2023-02-03T11:37:29.497Z,6.92
2023-02-03T11:39:35.653Z,6.96
2023-02-03T11:41:39.497Z,7.08
2023-02-03T11:43:42.076Z,7.11
2023-02-03T11:45:46.649Z,7.07
2023-02-03T11:47:56.036Z,6.95
2023-02-03T11:50:20.220Z,7.07
2023-02-03T11:52:49.322Z,6.98
2023-02-03T11:55:03.839Z,7.02
2023-02-03T11:57:30.439Z,7.00
2023-02-03T11:59:47.201Z,6.96
2023-02-03T12:02:21.255Z,6.84
2023-02-03T12:04:40.382Z,6.91
2023-02-03T12:07:06.080Z,6.98
2023-02-03T12:09:23.513Z,6.96
2023-02-03T12:11:40.007Z,6.94
2023-02-03T12:14:06.742Z,7.05
2023-02-03T12:16:27.850Z,6.90
2023-02-03T12:18:41.940Z,6.89
2023-02-03T12:21:01.823Z,6.88
2023-02-03T12:23:16.045Z,6.94
2023-02-03T12:25:37.955Z,7.01
2023-02-03T12:27:50.508Z,6.88
2023-02-03T12:29:58.624Z,6.94
2023-02-03T12:32:13.232Z,6.95
2023-02-03T12:34:22.031Z,6.82
2023-02-03T12:36:30.264Z,6.83
2023-02-03T12:38:37.759Z,6.77
2023-02-03T12:40:49.163Z,6.96
2023-02-03T12:42:57.343Z,6.88
2023-02-03T12:45:05.356Z,6.88
2023-02-03T12:47:15.990Z,7.03
2023-02-03T12:49:35.172Z,6.97
2023-02-03T12:51:43.673Z,6.81
2023-02-03T12:53:54.104Z,6.92
2023-02-03T12:56:02.843Z,7.07
2023-02-03T12:58:10.254Z,7.04
2023-02-03T13:00:26.839Z,7.16
2023-02-03T13:02:34.995Z,7.01
2023-02-03T13:04:45.606Z,7.15
2023-02-03T13:06:54.021Z,7.05
2023-02-03T13:09:02.324Z,7.15
2023-02-03T13:11:21.534Z,7.12
2023-02-03T13:13:33.865Z,7.11
2023-02-03T13:15:40.260Z,7.04
2023-02-03T13:17:52.383Z,7.01
2023-02-03T13:19:59.230Z,7.13
2023-02-03T13:22:03.139Z,7.04
2023-02-03T13:24:06.515Z,7.05
2023-02-03T13:26:51.090Z,7.08
2023-02-03T13:29:08.973Z,6.96
2023-02-03T13:31:36.085Z,6.91
2023-02-03T13:34:00.525Z,6.98
2023-02-03T13:36:18.319Z,6.94
2023-02-03T13:38:40.130Z,7.00
2023-02-03T13:40:55.780Z,6.97
2023-02-03T13:43:01.600Z,7.09
2023-02-03T13:45:10.478Z,7.00
2023-02-03T13:47:17.711Z,7.00
2023-02-03T13:49:26.578Z,7.08
2023-02-03T13:51:34.568Z,6.86
2023-02-03T13:53:41.336Z,7.04
2023-02-03T13:55:46.537Z,7.08
2023-02-03T13:57:52.793Z,6.88
2023-02-03T13:59:55.441Z,7.03
2023-02-03T14:02:32.273Z,6.95
2023-02-03T14:04:55.069Z,6.96
2023-02-03T14:07:02.694Z,6.94
2023-02-03T14:09:20.941Z,6.84
2023-02-03T14:11:43.087Z,6.98
2023-02-03T14:13:45.638Z,6.88
2023-02-03T14:18:46.997Z,7.00
2023-02-03T14:20:57.309Z,6.97
2023-02-03T14:23:07.865Z,6.92
2023-02-03T14:25:10.545Z,6.95
2023-02-03T14:27:19.977Z,7.09
2023-02-03T14:29:27.283Z,6.95
2023-02-03T14:31:29.958Z,6.87
2023-02-03T14:34:06.768Z,7.03
2023-02-03T14:36:37.956Z,6.83
2023-02-03T14:38:40.607Z,6.93
2023-02-03T14:40:52.130Z,7.13
2023-02-03T14:43:18.759Z,7.06
2023-02-03T14:45:36.915Z,6.97
2023-02-03T14:47:57.916Z,7.08
2023-02-03T14:50:14.517Z,7.04
2023-02-03T14:52:43.099Z,7.07
2023-02-03T14:55:03.639Z,6.97
2023-02-03T14:57:19.652Z,7.00
2023-02-03T14:59:26.180Z,6.98
2023-02-03T15:02:07.889Z,6.91
2023-02-03T15:04:25.384Z,6.95
2023-02-03T15:06:40.802Z,6.97
2023-02-03T15:08:48.486Z,6.97
2023-02-03T15:10:51.058Z,6.86
2023-02-03T15:12:55.127Z,6.91
2023-02-03T15:15:20.095Z,6.77
2023-02-03T15:17:25.244Z,6.96
2023-02-03T15:19:33.445Z,7.00
2023-02-03T15:21:42.734Z,7.03
2023-02-03T15:23:49.274Z,6.95
2023-02-03T15:25:55.790Z,6.89
2023-02-03T15:28:11.983Z,6.88
2023-02-03T15:30:18.956Z,6.91
2023-02-03T15:32:29.171Z,6.87
2023-02-03T15:34:37.446Z,6.88
2023-02-03T15:36:45.176Z,6.85
2023-02-03T15:38:52.644Z,6.83
2023-02-03T15:40:58.763Z,6.79
2023-02-03T15:43:04.949Z,6.76
2023-02-03T15:45:18.858Z,6.79
2023-02-03T15:47:29.370Z,6.80
2023-02-03T15:49:39.055Z,6.72
2023-02-03T15:51:46.070Z,6.73
2023-02-03T15:53:56.265Z,6.78
2023-02-03T15:56:04.282Z,6.93
2023-02-03T15:58:08.185Z,6.77
2023-02-03T16:00:26.180Z,6.94
2023-02-03T16:02:32.372Z,6.94
2023-02-03T16:04:36.288Z,6.91
2023-02-03T16:06:43.614Z,6.89
2023-02-03T16:08:48.127Z,6.87
2023-02-03T16:10:50.680Z,6.81
2023-02-03T16:12:53.337Z,6.84
2023-02-03T16:14:57.750Z,6.73
2023-02-03T16:17:05.250Z,6.80
2023-02-03T16:19:14.899Z,6.78
2023-02-03T16:21:26.748Z,6.81
2023-02-03T16:23:29.839Z,6.77
2023-02-03T16:25:34.423Z,6.83
2023-02-03T16:27:37.109Z,6.68
2023-02-03T16:29:57.585Z,6.77
2023-02-03T16:32:18.974Z,6.76
2023-02-03T16:34:39.002Z,6.74
2023-02-03T16:37:02.113Z,6.80
2023-02-03T16:39:29.376Z,6.85
2023-02-03T16:41:50.537Z,6.68
2023-02-03T16:44:10.904Z,6.65
2023-02-03T16:46:31.191Z,6.62
2023-02-03T16:48:51.553Z,6.59
2023-02-03T16:50:58.225Z,6.73
2023-02-03T16:53:03.251Z,6.76
2023-02-03T16:55:06.911Z,6.68
2023-02-03T16:57:09.474Z,6.59
2023-02-03T16:59:13.469Z,6.64
2023-02-03T17:01:16.082Z,6.74
2023-02-03T17:03:21.059Z,6.66
2023-02-03T17:05:23.625Z,6.59
2023-02-03T17:07:26.205Z,6.46
2023-02-03T17:09:34.885Z,6.55
2023-02-03T17:11:37.520Z,6.68
2023-02-03T17:13:40.121Z,6.65
2023-02-03T17:15:43.960Z,6.57
2023-02-03T17:17:46.814Z,6.68
2023-02-03T17:19:49.386Z,6.66
2023-02-03T17:21:53.305Z,6.65
2023-02-03T17:23:56.266Z,6.70
2023-02-03T17:26:00.201Z,6.55
2023-02-03T17:28:03.011Z,6.67
2023-02-03T17:30:06.637Z,6.55
2023-02-03T17:32:09.422Z,6.63
2023-02-03T17:34:12.007Z,6.69
2023-02-03T17:36:16.333Z,6.70
2023-02-03T17:38:18.896Z,6.67
2023-02-03T17:54:24.896Z,6.58
2023-02-03T17:56:27.865Z,6.69
2023-02-03T17:58:31.777Z,6.56
2023-02-03T18:00:34.341Z,6.66
2023-02-03T18:02:36.933Z,6.73
2023-02-03T18:04:39.547Z,6.73
2023-02-03T18:06:42.304Z,6.73
2023-02-03T18:08:45.671Z,6.70
2023-02-03T18:10:48.222Z,6.60
2023-02-03T18:12:50.788Z,6.52
2023-02-03T18:14:54.732Z,6.60
2023-02-03T18:16:57.389Z,6.53
2023-02-03T18:19:02.716Z,6.49
2023-02-03T18:21:05.885Z,6.54
2023-02-03T18:23:08.918Z,6.38
2023-02-03T18:25:12.621Z,6.46
2023-02-03T18:27:17.114Z,6.47
2023-02-03T18:29:20.300Z,6.44
2023-02-03T18:31:25.288Z,6.46
2023-02-03T18:33:28.698Z,6.38
2023-02-03T18:35:33.526Z,6.41
2023-02-03T18:37:36.099Z,6.38
2023-02-03T18:39:38.742Z,6.36
2023-02-03T18:41:41.278Z,6.44
2023-02-03T18:43:44.826Z,6.40
2023-02-03T18:45:47.378Z,6.31
2023-02-03T18:47:51.291Z,6.29
2023-02-03T18:49:53.863Z,6.33
2023-02-03T18:51:56.412Z,6.38
2023-02-03T18:54:00.001Z,6.26
2023-02-03T18:56:02.648Z,6.27
2023-02-03T18:58:05.466Z,6.19
2023-02-03T19:00:09.297Z,6.37
2023-02-03T19:02:12.751Z,6.22
2023-02-03T19:04:16.657Z,6.36
2023-02-03T19:06:19.499Z,6.37
2023-02-03T19:08:22.374Z,6.37
2023-02-03T19:10:24.957Z,6.31
2023-02-03T19:12:27.658Z,6.55
2023-02-03T19:14:30.287Z,6.43
2023-02-03T19:16:33.020Z,6.38
2023-02-03T19:18:36.231Z,6.20
2023-02-03T19:20:41.342Z,6.36
2023-02-03T19:22:44.250Z,6.43
2023-02-03T19:24:46.908Z,6.36
2023-02-03T19:26:49.447Z,6.26
2023-02-03T19:28:52.567Z,6.21
2023-02-03T19:31:00.025Z,6.17
2023-02-03T19:33:08.465Z,6.31
2023-02-03T19:35:11.051Z,6.34
2023-02-03T19:37:17.189Z,6.33
2023-02-03T19:39:21.085Z,6.22
2023-02-03T19:41:25.644Z,6.27
2023-02-03T19:43:28.312Z,6.16
2023-02-03T19:45:30.928Z,6.29
2023-02-03T19:47:33.666Z,6.15
2023-02-03T19:49:36.284Z,6.06
2023-02-03T19:51:39.097Z,6.34
2023-02-03T19:53:42.999Z,6.34
2023-02-03T19:55:46.420Z,6.25
2023-02-03T19:57:49.845Z,6.24
2023-02-03T19:59:52.401Z,6.31
2023-02-03T20:01:56.616Z,6.28
2023-02-03T20:04:00.543Z,6.21
2023-02-03T20:06:03.992Z,6.19
2023-02-03T20:08:07.047Z,6.17
2023-02-03T20:10:12.205Z,6.28
2023-02-03T20:12:14.783Z,6.17
2023-02-03T20:14:18.980Z,6.10
2023-02-03T20:16:21.719Z,6.01
2023-02-03T20:18:24.386Z,6.21
2023-02-03T20:20:27.155Z,6.15
2023-02-03T20:22:29.694Z,6.16
2023-02-03T20:24:32.373Z,6.21
2023-02-03T20:26:36.294Z,6.13
2023-02-03T20:28:39.838Z,5.99
2023-02-03T20:30:42.703Z,6.00
2023-02-03T20:32:45.289Z,6.15
2023-02-03T20:34:47.904Z,6.20
2023-02-03T20:36:50.554Z,6.12
2023-02-03T20:38:53.183Z,6.13
2023-02-03T20:40:55.888Z,6.24
2023-02-03T20:43:05.886Z,6.15
2023-02-03T20:45:13.495Z,6.16
2023-02-03T20:47:18.894Z,6.14
2023-02-03T20:49:21.652Z,6.08
2023-02-03T20:51:24.672Z,6.12
2023-02-03T20:53:27.714Z,6.13
2023-02-03T20:55:30.346Z,6.21
2023-02-03T20:57:34.033Z,6.08
2023-02-03T20:59:38.427Z,6.05
2023-02-03T21:01:41.267Z,6.08
2023-02-03T21:04:02.194Z,6.15
2023-02-03T21:06:13.958Z,6.15
2023-02-03T21:08:18.841Z,6.10
2023-02-03T21:10:25.100Z,6.04
2023-02-03T21:12:29.162Z,6.08
2023-02-03T21:14:40.082Z,6.08
2023-02-03T21:16:42.663Z,5.99
2023-02-03T21:18:49.120Z,6.13
2023-02-03T21:20:52.422Z,6.16
2023-02-03T21:22:55.188Z,6.25
2023-02-03T21:24:59.365Z,6.23
2023-02-03T21:27:02.618Z,6.19
2023-02-03T21:29:05.167Z,6.19
2023-02-03T21:31:20.276Z,6.04
2023-02-03T21:33:36.269Z,6.18
2023-02-03T21:35:39.248Z,6.19
2023-02-03T21:37:42.881Z,6.10
2023-02-03T21:39:46.575Z,6.15
2023-02-03T21:41:49.142Z,6.05
2023-02-03T21:43:52.940Z,6.02
2023-02-03T21:45:55.556Z,6.11
2023-02-03T21:48:00.040Z,6.31
2023-02-03T21:50:03.295Z,6.34
2023-02-03T21:52:06.266Z,6.30
2023-02-03T21:54:24.400Z,6.36
2023-02-03T21:56:28.741Z,6.28
2023-02-03T21:58:35.749Z,6.37
2023-02-03T22:00:42.944Z,6.31
2023-02-03T22:02:57.296Z,6.25
2023-02-03T22:05:01.839Z,6.19
2023-02-03T22:07:15.939Z,6.30
2023-02-03T22:09:19.839Z,6.16
2023-02-03T22:11:24.260Z,6.15
2023-02-03T22:13:26.863Z,6.03
2023-02-03T22:15:29.462Z,6.30
2023-02-03T22:17:32.129Z,6.29
2023-02-03T22:19:34.702Z,6.32
2023-02-03T22:21:38.682Z,6.35
2023-02-03T22:23:41.542Z,6.29
2023-02-03T22:25:44.149Z,6.23
2023-02-03T22:27:46.742Z,6.18
2023-02-03T22:29:49.385Z,6.42
2023-02-03T22:31:52.026Z,6.38
2023-02-03T22:33:54.705Z,6.46
2023-02-03T22:35:57.278Z,6.38
2023-02-03T22:38:01.182Z,6.37
2023-02-03T22:40:03.962Z,6.29
2023-02-03T22:42:06.647Z,6.30
2023-02-03T22:44:11.655Z,6.30
2023-02-03T22:46:14.322Z,6.28
2023-02-03T22:48:16.996Z,6.36
2023-02-03T22:50:24.720Z,6.30
2023-02-03T22:52:30.101Z,6.30
2023-02-03T22:54:36.806Z,6.22
2023-02-03T22:56:39.376Z,6.22
2023-02-03T22:58:41.962Z,6.09
2023-02-03T23:00:46.668Z,6.11
2023-02-03T23:02:50.045Z,6.11
2023-02-03T23:04:52.776Z,6.08
2023-02-03T23:06:55.327Z,6.08
2023-02-03T23:08:57.900Z,6.01
2023-02-03T23:11:01.777Z,5.93
2023-02-03T23:13:04.324Z,6.13
2023-02-03T23:15:07.815Z,6.02
2023-02-03T23:17:10.366Z,5.87
2023-02-03T23:19:12.972Z,5.98
2023-02-03T23:21:15.496Z,6.06
2023-02-03T23:23:18.063Z,6.01
2023-02-03T23:25:20.642Z,6.09
2023-02-03T23:27:24.702Z,6.09
2023-02-03T23:29:27.281Z,6.09
2023-02-03T23:31:29.986Z,6.12
2023-02-03T23:33:32.660Z,6.05
2023-02-03T23:35:46.258Z,6.07
2023-02-03T23:37:49.226Z,6.15
2023-02-03T23:39:51.786Z,6.04
2023-02-03T23:41:54.454Z,6.06
2023-02-03T23:43:58.325Z,5.96
2023-02-03T23:46:00.876Z,5.89
2023-02-03T23:48:03.438Z,5.80
2023-02-03T23:50:06.902Z,5.80
2023-02-03T23:52:09.515Z,5.84
2023-02-03T23:54:12.761Z,5.92
2023-02-03T23:56:15.333Z,5.84
2023-02-03T23:58:17.885Z,5.86
